sensor_id;sensor_type;location;lat;lon;timestamp;pressure;altitude;pressure_sealevel;temperature;humidity
11395;BME280;5753;54.402;10.220;2023-04-19T00:01:07;103366.56;;;16.33;37.54
11395;BME280;5753;54.402;10.220;2023-04-19T00:03:33;103359.53;;;15.32;39.53
11395;BME280;5753;54.402;10.220;2023-04-19T00:05:59;103369.13;;;16.32;37.44
11395;BME280;5753;54.402;10.220;2023-04-19T00:08:25;103363.59;;;16.50;37.24
11395;BME280;5753;54.402;10.220;2023-04-19T00:10:52;103370.69;;;16.27;37.49
11395;BME280;5753;54.402;10.220;2023-04-19T00:13:18;103359.16;;;16.46;37.06
11395;BME280;5753;54.402;10.220;2023-04-19T00:15:44;103358.38;;;15.70;38.79
11395;BME280;5753;54.402;10.220;2023-04-19T00:18:10;103366.06;;;15.21;39.74
11395;BME280;5753;54.402;10.220;2023-04-19T00:20:37;103361.16;;;16.02;38.24
11395;BME280;5753;54.402;10.220;2023-04-19T00:23:03;103361.69;;;15.66;38.30
11395;BME280;5753;54.402;10.220;2023-04-19T00:25:29;103356.34;;;16.40;37.25
11395;BME280;5753;54.402;10.220;2023-04-19T00:27:56;103354.63;;;16.40;37.16
11395;BME280;5753;54.402;10.220;2023-04-19T00:30:23;103359.19;;;16.20;37.60
11395;BME280;5753;54.402;10.220;2023-04-19T00:32:49;103357.00;;;15.34;39.75
11395;BME280;5753;54.402;10.220;2023-04-19T00:35:15;103349.13;;;15.08;40.44
11395;BME280;5753;54.402;10.220;2023-04-19T00:37:41;103355.41;;;16.11;38.43
11395;BME280;5753;54.402;10.220;2023-04-19T00:40:07;103355.13;;;16.03;38.04
11395;BME280;5753;54.402;10.220;2023-04-19T00:42:34;103354.41;;;16.07;38.29
11395;BME280;5753;54.402;10.220;2023-04-19T00:45:00;103347.03;;;15.68;38.57
11395;BME280;5753;54.402;10.220;2023-04-19T00:47:27;103357.91;;;16.34;37.70
11395;BME280;5753;54.402;10.220;2023-04-19T00:49:53;103356.25;;;16.36;37.69
11395;BME280;5753;54.402;10.220;2023-04-19T00:52:20;103349.69;;;15.70;38.50
11395;BME280;5753;54.402;10.220;2023-04-19T00:54:47;103354.72;;;16.43;37.54
11395;BME280;5753;54.402;10.220;2023-04-19T00:57:14;103352.91;;;16.41;37.62
11395;BME280;5753;54.402;10.220;2023-04-19T00:59:41;103354.59;;;16.38;37.87
11395;BME280;5753;54.402;10.220;2023-04-19T01:02:08;103358.53;;;16.80;37.25
11395;BME280;5753;54.402;10.220;2023-04-19T01:04:35;103350.72;;;16.54;37.57
11395;BME280;5753;54.402;10.220;2023-04-19T01:07:01;103358.25;;;16.71;37.17
11395;BME280;5753;54.402;10.220;2023-04-19T01:09:30;103355.50;;;16.14;38.28
11395;BME280;5753;54.402;10.220;2023-04-19T01:11:56;103350.72;;;16.54;37.67
11395;BME280;5753;54.402;10.220;2023-04-19T01:14:23;103355.56;;;15.90;38.87
11395;BME280;5753;54.402;10.220;2023-04-19T01:16:49;103357.00;;;16.32;37.99
11395;BME280;5753;54.402;10.220;2023-04-19T01:19:15;103350.03;;;15.81;39.42
11395;BME280;5753;54.402;10.220;2023-04-19T01:21:41;103352.22;;;15.94;39.12
11395;BME280;5753;54.402;10.220;2023-04-19T01:24:08;103350.94;;;16.33;38.12
11395;BME280;5753;54.402;10.220;2023-04-19T01:26:34;103346.75;;;15.86;38.98
11395;BME280;5753;54.402;10.220;2023-04-19T01:29:00;103352.72;;;16.34;38.29
11395;BME280;5753;54.402;10.220;2023-04-19T01:31:26;103341.50;;;16.64;37.75
11395;BME280;5753;54.402;10.220;2023-04-19T01:33:52;103345.34;;;16.21;38.80
11395;BME280;5753;54.402;10.220;2023-04-19T01:36:18;103340.53;;;15.81;39.66
11395;BME280;5753;54.402;10.220;2023-04-19T01:38:45;103339.34;;;16.51;38.04
11395;BME280;5753;54.402;10.220;2023-04-19T01:41:12;103345.50;;;16.00;38.87
11395;BME280;5753;54.402;10.220;2023-04-19T01:43:38;103346.47;;;16.29;38.53
11395;BME280;5753;54.402;10.220;2023-04-19T01:46:05;103343.44;;;16.43;38.19
11395;BME280;5753;54.402;10.220;2023-04-19T01:48:31;103339.31;;;15.97;39.20
11395;BME280;5753;54.402;10.220;2023-04-19T01:50:57;103342.25;;;16.33;37.96
11395;BME280;5753;54.402;10.220;2023-04-19T01:53:23;103342.41;;;16.37;38.20
11395;BME280;5753;54.402;10.220;2023-04-19T01:55:49;103333.06;;;16.17;38.39
11395;BME280;5753;54.402;10.220;2023-04-19T01:58:15;103339.22;;;15.94;39.00
11395;BME280;5753;54.402;10.220;2023-04-19T02:00:41;103334.16;;;15.98;38.98
11395;BME280;5753;54.402;10.220;2023-04-19T02:03:07;103336.50;;;16.16;39.00
11395;BME280;5753;54.402;10.220;2023-04-19T02:05:33;103336.19;;;16.07;39.09
11395;BME280;5753;54.402;10.220;2023-04-19T02:08:00;103337.09;;;16.34;38.91
11395;BME280;5753;54.402;10.220;2023-04-19T02:10:26;103340.44;;;16.05;40.17
11395;BME280;5753;54.402;10.220;2023-04-19T02:12:53;103332.88;;;16.11;40.33
11395;BME280;5753;54.402;10.220;2023-04-19T02:15:19;103334.22;;;16.00;41.13
11395;BME280;5753;54.402;10.220;2023-04-19T02:17:45;103321.56;;;16.37;40.18
11395;BME280;5753;54.402;10.220;2023-04-19T02:20:11;103331.47;;;16.49;40.17
11395;BME280;5753;54.402;10.220;2023-04-19T02:22:38;103333.91;;;15.91;42.34
11395;BME280;5753;54.402;10.220;2023-04-19T02:25:04;103328.25;;;16.29;41.52
11395;BME280;5753;54.402;10.220;2023-04-19T02:27:30;103323.22;;;15.34;43.89
11395;BME280;5753;54.402;10.220;2023-04-19T02:29:56;103321.34;;;15.30;44.37
11395;BME280;5753;54.402;10.220;2023-04-19T02:32:22;103318.50;;;16.51;41.31
11395;BME280;5753;54.402;10.220;2023-04-19T02:34:49;103312.59;;;16.83;40.62
11395;BME280;5753;54.402;10.220;2023-04-19T02:37:15;103311.72;;;16.27;41.49
11395;BME280;5753;54.402;10.220;2023-04-19T02:39:42;103310.09;;;16.58;40.93
11395;BME280;5753;54.402;10.220;2023-04-19T02:42:08;103309.50;;;16.40;41.66
11395;BME280;5753;54.402;10.220;2023-04-19T02:44:34;103314.50;;;16.33;41.50
11395;BME280;5753;54.402;10.220;2023-04-19T02:47:00;103307.06;;;16.17;41.64
11395;BME280;5753;54.402;10.220;2023-04-19T02:49:26;103307.50;;;16.05;41.28
11395;BME280;5753;54.402;10.220;2023-04-19T02:51:52;103301.53;;;16.35;40.61
11395;BME280;5753;54.402;10.220;2023-04-19T02:54:18;103300.94;;;16.44;40.31
11395;BME280;5753;54.402;10.220;2023-04-19T02:56:44;103297.72;;;16.52;40.18
11395;BME280;5753;54.402;10.220;2023-04-19T02:59:10;103296.72;;;15.44;42.64
11395;BME280;5753;54.402;10.220;2023-04-19T03:01:36;103303.56;;;16.17;41.26
11395;BME280;5753;54.402;10.220;2023-04-19T03:04:02;103296.03;;;15.99;41.71
11395;BME280;5753;54.402;10.220;2023-04-19T03:06:29;103293.31;;;16.21;41.73
11395;BME280;5753;54.402;10.220;2023-04-19T03:08:55;103289.69;;;16.16;41.52
11395;BME280;5753;54.402;10.220;2023-04-19T03:11:21;103293.84;;;15.60;42.83
11395;BME280;5753;54.402;10.220;2023-04-19T03:13:47;103293.16;;;15.64;43.23
11395;BME280;5753;54.402;10.220;2023-04-19T03:16:13;103289.63;;;16.15;41.90
11395;BME280;5753;54.402;10.220;2023-04-19T03:18:39;103281.63;;;15.10;43.78
11395;BME280;5753;54.402;10.220;2023-04-19T03:21:05;103280.59;;;16.30;41.45
11395;BME280;5753;54.402;10.220;2023-04-19T03:23:34;103274.72;;;16.37;41.23
11395;BME280;5753;54.402;10.220;2023-04-19T03:26:00;103282.34;;;16.31;41.36
11395;BME280;5753;54.402;10.220;2023-04-19T03:28:27;103281.59;;;15.82;41.97
11395;BME280;5753;54.402;10.220;2023-04-19T03:30:53;103278.53;;;16.49;40.90
11395;BME280;5753;54.402;10.220;2023-04-19T03:33:19;103271.00;;;16.29;41.40
11395;BME280;5753;54.402;10.220;2023-04-19T03:35:45;103272.91;;;15.57;43.03
11395;BME280;5753;54.402;10.220;2023-04-19T03:38:11;103270.94;;;15.74;42.60
11395;BME280;5753;54.402;10.220;2023-04-19T03:40:37;103272.31;;;16.15;41.71
11395;BME280;5753;54.402;10.220;2023-04-19T03:43:03;103265.66;;;16.25;42.05
11395;BME280;5753;54.402;10.220;2023-04-19T03:45:30;103265.91;;;16.32;41.82
11395;BME280;5753;54.402;10.220;2023-04-19T03:47:56;103268.53;;;16.34;41.97
11395;BME280;5753;54.402;10.220;2023-04-19T03:50:22;103260.25;;;16.47;41.57
11395;BME280;5753;54.402;10.220;2023-04-19T03:52:48;103270.69;;;16.47;41.49
11395;BME280;5753;54.402;10.220;2023-04-19T03:55:14;103257.94;;;17.15;40.04
11395;BME280;5753;54.402;10.220;2023-04-19T03:57:40;103269.34;;;16.60;41.29
11395;BME280;5753;54.402;10.220;2023-04-19T04:00:07;103269.56;;;15.60;42.94
11395;BME280;5753;54.402;10.220;2023-04-19T04:02:37;103260.22;;;16.73;40.99
11395;BME280;5753;54.402;10.220;2023-04-19T04:05:04;103256.69;;;16.71;40.90
11395;BME280;5753;54.402;10.220;2023-04-19T04:07:31;103266.91;;;16.09;42.12
11395;BME280;5753;54.402;10.220;2023-04-19T04:09:57;103263.53;;;16.67;40.86
11395;BME280;5753;54.402;10.220;2023-04-19T04:12:23;103256.31;;;16.88;40.14
11395;BME280;5753;54.402;10.220;2023-04-19T04:14:49;103265.91;;;16.32;40.97
11395;BME280;5753;54.402;10.220;2023-04-19T04:17:15;103260.25;;;16.74;40.09
11395;BME280;5753;54.402;10.220;2023-04-19T04:19:41;103254.28;;;16.78;39.81
11395;BME280;5753;54.402;10.220;2023-04-19T04:22:07;103252.31;;;16.43;40.53
11395;BME280;5753;54.402;10.220;2023-04-19T04:24:40;103256.38;;;16.61;39.88
11395;BME280;5753;54.402;10.220;2023-04-19T04:27:08;103256.59;;;17.29;38.46
11395;BME280;5753;54.402;10.220;2023-04-19T04:29:38;103253.97;;;16.97;39.36
11395;BME280;5753;54.402;10.220;2023-04-19T04:32:06;103251.59;;;17.05;38.95
11395;BME280;5753;54.402;10.220;2023-04-19T04:34:36;103264.69;;;15.69;42.06
11395;BME280;5753;54.402;10.220;2023-04-19T04:37:02;103269.69;;;16.44;40.45
11395;BME280;5753;54.402;10.220;2023-04-19T04:39:29;103257.69;;;17.06;39.19
11395;BME280;5753;54.402;10.220;2023-04-19T04:41:55;103254.00;;;16.99;39.27
11395;BME280;5753;54.402;10.220;2023-04-19T04:44:24;103256.00;;;16.21;41.14
11395;BME280;5753;54.402;10.220;2023-04-19T04:46:50;103264.84;;;15.73;42.41
11395;BME280;5753;54.402;10.220;2023-04-19T04:49:16;103262.03;;;16.20;41.59
11395;BME280;5753;54.402;10.220;2023-04-19T04:51:42;103255.00;;;16.46;41.18
11395;BME280;5753;54.402;10.220;2023-04-19T04:54:08;103256.81;;;15.93;42.07
11395;BME280;5753;54.402;10.220;2023-04-19T04:56:35;103253.34;;;14.94;43.41
11395;BME280;5753;54.402;10.220;2023-04-19T04:59:01;103258.44;;;16.16;41.41
11395;BME280;5753;54.402;10.220;2023-04-19T05:01:27;103260.59;;;16.29;40.82
11395;BME280;5753;54.402;10.220;2023-04-19T05:03:53;103260.44;;;16.80;40.41
11395;BME280;5753;54.402;10.220;2023-04-19T05:06:19;103261.25;;;16.51;40.75
11395;BME280;5753;54.402;10.220;2023-04-19T05:08:46;103266.88;;;15.33;43.48
11395;BME280;5753;54.402;10.220;2023-04-19T05:11:12;103259.69;;;16.56;40.62
11395;BME280;5753;54.402;10.220;2023-04-19T05:13:38;103257.47;;;17.29;39.21
11395;BME280;5753;54.402;10.220;2023-04-19T05:16:05;103262.88;;;15.17;42.67
11395;BME280;5753;54.402;10.220;2023-04-19T05:18:31;103267.94;;;16.14;40.91
11395;BME280;5753;54.402;10.220;2023-04-19T05:20:57;103267.84;;;16.40;39.99
11395;BME280;5753;54.402;10.220;2023-04-19T05:23:23;103270.22;;;15.78;40.65
11395;BME280;5753;54.402;10.220;2023-04-19T05:25:49;103263.06;;;17.12;39.42
11395;BME280;5753;54.402;10.220;2023-04-19T05:28:15;103263.00;;;16.52;39.47
11395;BME280;5753;54.402;10.220;2023-04-19T05:30:42;103267.19;;;16.18;40.17
11395;BME280;5753;54.402;10.220;2023-04-19T05:33:08;103257.38;;;16.10;40.36
11395;BME280;5753;54.402;10.220;2023-04-19T05:35:34;103261.53;;;16.88;38.63
11395;BME280;5753;54.402;10.220;2023-04-19T05:38:00;103262.81;;;16.46;39.37
11395;BME280;5753;54.402;10.220;2023-04-19T05:40:26;103264.50;;;16.71;39.48
11395;BME280;5753;54.402;10.220;2023-04-19T05:42:53;103267.88;;;16.98;38.63
11395;BME280;5753;54.402;10.220;2023-04-19T05:45:21;103255.66;;;16.38;39.69
11395;BME280;5753;54.402;10.220;2023-04-19T05:47:47;103259.25;;;17.00;38.75
11395;BME280;5753;54.402;10.220;2023-04-19T05:50:13;103257.69;;;17.06;39.27
11395;BME280;5753;54.402;10.220;2023-04-19T05:52:42;103256.03;;;15.68;42.66
11395;BME280;5753;54.402;10.220;2023-04-19T05:55:08;103262.72;;;16.70;41.24
11395;BME280;5753;54.402;10.220;2023-04-19T05:57:35;103258.91;;;16.88;41.57
11395;BME280;5753;54.402;10.220;2023-04-19T06:00:01;103266.03;;;16.09;43.86
11395;BME280;5753;54.402;10.220;2023-04-19T06:02:27;103259.53;;;17.10;42.43
11395;BME280;5753;54.402;10.220;2023-04-19T06:04:53;103260.09;;;16.41;43.84
11395;BME280;5753;54.402;10.220;2023-04-19T06:07:19;103261.63;;;15.57;44.73
11395;BME280;5753;54.402;10.220;2023-04-19T06:09:45;103252.75;;;16.01;43.80
11395;BME280;5753;54.402;10.220;2023-04-19T06:12:11;103266.94;;;16.11;43.70
11395;BME280;5753;54.402;10.220;2023-04-19T06:14:37;103262.47;;;15.80;43.90
11395;BME280;5753;54.402;10.220;2023-04-19T06:17:04;103263.47;;;17.58;40.84
11395;BME280;5753;54.402;10.220;2023-04-19T06:19:30;103259.00;;;16.91;42.56
11395;BME280;5753;54.402;10.220;2023-04-19T06:21:59;103262.50;;;16.35;43.28
11395;BME280;5753;54.402;10.220;2023-04-19T06:24:25;103259.91;;;16.63;42.99
11395;BME280;5753;54.402;10.220;2023-04-19T06:26:51;103250.59;;;17.02;41.19
11395;BME280;5753;54.402;10.220;2023-04-19T06:29:17;103258.84;;;16.85;40.82
11395;BME280;5753;54.402;10.220;2023-04-19T06:31:46;103250.69;;;16.18;41.07
11395;BME280;5753;54.402;10.220;2023-04-19T06:34:12;103257.50;;;16.70;40.58
11395;BME280;5753;54.402;10.220;2023-04-19T06:36:38;103266.34;;;16.48;40.80
11395;BME280;5753;54.402;10.220;2023-04-19T06:39:05;103254.28;;;16.78;40.23
11395;BME280;5753;54.402;10.220;2023-04-19T06:41:31;103248.97;;;16.47;40.76
11395;BME280;5753;54.402;10.220;2023-04-19T06:43:58;103259.00;;;17.54;39.04
11395;BME280;5753;54.402;10.220;2023-04-19T06:46:24;103251.63;;;18.06;38.15
11395;BME280;5753;54.402;10.220;2023-04-19T06:48:52;103257.13;;;16.57;41.30
11395;BME280;5753;54.402;10.220;2023-04-19T06:51:18;103258.97;;;16.33;41.22
11395;BME280;5753;54.402;10.220;2023-04-19T06:53:44;103252.28;;;16.99;39.54
11395;BME280;5753;54.402;10.220;2023-04-19T06:56:10;103250.56;;;18.37;37.29
11395;BME280;5753;54.402;10.220;2023-04-19T06:58:38;103246.56;;;17.77;38.43
11395;BME280;5753;54.402;10.220;2023-04-19T07:01:04;103254.09;;;17.34;39.73
11395;BME280;5753;54.402;10.220;2023-04-19T07:03:31;103255.72;;;18.34;37.92
11395;BME280;5753;54.402;10.220;2023-04-19T07:05:57;103253.00;;;17.57;38.67
11395;BME280;5753;54.402;10.220;2023-04-19T07:08:24;103248.56;;;17.87;39.16
11395;BME280;5753;54.402;10.220;2023-04-19T07:10:50;103248.06;;;18.02;38.90
11395;BME280;5753;54.402;10.220;2023-04-19T07:13:16;103245.84;;;16.87;40.17
11395;BME280;5753;54.402;10.220;2023-04-19T07:15:42;103248.88;;;16.71;40.70
11395;BME280;5753;54.402;10.220;2023-04-19T07:18:08;103243.13;;;16.25;41.46
11395;BME280;5753;54.402;10.220;2023-04-19T07:20:39;103243.22;;;17.50;38.51
11395;BME280;5753;54.402;10.220;2023-04-19T07:23:09;103237.41;;;17.94;38.04
11395;BME280;5753;54.402;10.220;2023-04-19T07:25:36;103238.31;;;17.97;38.30
11395;BME280;5753;54.402;10.220;2023-04-19T07:28:02;103232.09;;;17.90;38.41
11395;BME280;5753;54.402;10.220;2023-04-19T07:30:28;103242.84;;;16.73;40.27
11395;BME280;5753;54.402;10.220;2023-04-19T07:32:54;103234.09;;;18.00;38.93
11395;BME280;5753;54.402;10.220;2023-04-19T07:35:21;103230.22;;;19.02;36.18
11395;BME280;5753;54.402;10.220;2023-04-19T07:37:47;103234.84;;;17.96;38.42
11395;BME280;5753;54.402;10.220;2023-04-19T07:40:13;103235.84;;;18.79;37.04
11395;BME280;5753;54.402;10.220;2023-04-19T07:42:39;103232.69;;;17.78;38.50
11395;BME280;5753;54.402;10.220;2023-04-19T07:45:05;103236.38;;;17.20;39.34
11395;BME280;5753;54.402;10.220;2023-04-19T07:47:32;103228.63;;;16.92;40.42
11395;BME280;5753;54.402;10.220;2023-04-19T07:49:58;103227.50;;;18.96;37.27
11395;BME280;5753;54.402;10.220;2023-04-19T07:52:24;103232.13;;;17.24;39.66
11395;BME280;5753;54.402;10.220;2023-04-19T07:54:50;103224.94;;;18.99;36.48
11395;BME280;5753;54.402;10.220;2023-04-19T07:57:16;103227.88;;;17.97;38.33
11395;BME280;5753;54.402;10.220;2023-04-19T07:59:42;103227.53;;;18.17;38.58
11395;BME280;5753;54.402;10.220;2023-04-19T08:02:08;103222.53;;;20.13;35.44
11395;BME280;5753;54.402;10.220;2023-04-19T08:04:34;103222.41;;;20.04;35.34
11395;BME280;5753;54.402;10.220;2023-04-19T08:07:01;103218.84;;;19.99;35.37
11395;BME280;5753;54.402;10.220;2023-04-19T08:09:29;103224.34;;;19.15;35.97
11395;BME280;5753;54.402;10.220;2023-04-19T08:11:55;103211.34;;;19.66;35.84
11395;BME280;5753;54.402;10.220;2023-04-19T08:14:22;103215.28;;;20.56;34.30
11395;BME280;5753;54.402;10.220;2023-04-19T08:16:48;103214.34;;;21.28;33.46
11395;BME280;5753;54.402;10.220;2023-04-19T08:19:14;103214.88;;;20.94;33.72
11395;BME280;5753;54.402;10.220;2023-04-19T08:21:40;103203.34;;;20.15;34.95
11395;BME280;5753;54.402;10.220;2023-04-19T08:24:06;103214.25;;;18.46;37.54
11395;BME280;5753;54.402;10.220;2023-04-19T08:26:32;103213.31;;;18.84;37.30
11395;BME280;5753;54.402;10.220;2023-04-19T08:28:59;103208.56;;;18.65;37.55
11395;BME280;5753;54.402;10.220;2023-04-19T08:31:25;103210.47;;;19.19;36.73
11395;BME280;5753;54.402;10.220;2023-04-19T08:33:51;103208.66;;;19.15;36.77
11395;BME280;5753;54.402;10.220;2023-04-19T08:36:17;103196.06;;;19.92;35.88
11395;BME280;5753;54.402;10.220;2023-04-19T08:38:43;103200.06;;;19.22;36.94
11395;BME280;5753;54.402;10.220;2023-04-19T08:41:10;103198.56;;;18.88;37.46
11395;BME280;5753;54.402;10.220;2023-04-19T08:43:38;103186.38;;;19.87;36.08
11395;BME280;5753;54.402;10.220;2023-04-19T08:46:07;103187.84;;;19.71;36.36
11395;BME280;5753;54.402;10.220;2023-04-19T08:48:34;103186.47;;;20.58;35.35
11395;BME280;5753;54.402;10.220;2023-04-19T08:51:02;103172.63;;;20.03;36.42
11395;BME280;5753;54.402;10.220;2023-04-19T08:53:28;103179.72;;;19.53;36.82
11395;BME280;5753;54.402;10.220;2023-04-19T08:55:55;103173.25;;;20.47;35.72
11395;BME280;5753;54.402;10.220;2023-04-19T08:58:24;103178.34;;;19.77;36.36
11395;BME280;5753;54.402;10.220;2023-04-19T09:00:51;103166.53;;;20.04;36.33
11395;BME280;5753;54.402;10.220;2023-04-19T09:03:17;103165.66;;;20.71;35.18
11395;BME280;5753;54.402;10.220;2023-04-19T09:05:43;103172.91;;;20.24;35.58
11395;BME280;5753;54.402;10.220;2023-04-19T09:08:30;103165.38;;;19.32;36.56
11395;BME280;5753;54.402;10.220;2023-04-19T09:11:00;103174.63;;;19.62;36.05
11395;BME280;5753;54.402;10.220;2023-04-19T09:13:28;103162.97;;;19.43;36.32
11395;BME280;5753;54.402;10.220;2023-04-19T09:15:54;103173.72;;;20.19;35.72
11395;BME280;5753;54.402;10.220;2023-04-19T09:18:25;103166.72;;;20.86;34.81
11395;BME280;5753;54.402;10.220;2023-04-19T09:20:52;103165.00;;;20.89;34.67
11395;BME280;5753;54.402;10.220;2023-04-19T09:23:26;103167.97;;;19.31;36.73
11395;BME280;5753;54.402;10.220;2023-04-19T09:25:55;103165.91;;;19.61;35.92
11395;BME280;5753;54.402;10.220;2023-04-19T09:28:22;103163.19;;;20.14;35.11
11395;BME280;5753;54.402;10.220;2023-04-19T09:30:49;103161.31;;;20.05;35.96
11395;BME280;5753;54.402;10.220;2023-04-19T09:33:35;103161.28;;;19.46;37.28
11395;BME280;5753;54.402;10.220;2023-04-19T09:36:05;103163.16;;;20.12;36.29
11395;BME280;5753;54.402;10.220;2023-04-19T09:38:46;103155.22;;;20.05;36.44
11395;BME280;5753;54.402;10.220;2023-04-19T09:41:13;103143.63;;;21.38;33.93
11395;BME280;5753;54.402;10.220;2023-04-19T09:43:39;103151.66;;;19.44;37.39
11395;BME280;5753;54.402;10.220;2023-04-19T09:46:05;103153.88;;;19.23;37.72
11395;BME280;5753;54.402;10.220;2023-04-19T09:48:32;103152.00;;;19.64;37.16
11395;BME280;5753;54.402;10.220;2023-04-19T09:51:00;103140.84;;;19.24;38.43
11395;BME280;5753;54.402;10.220;2023-04-19T09:53:40;103139.19;;;20.47;36.36
11395;BME280;5753;54.402;10.220;2023-04-19T09:56:09;103138.69;;;18.99;38.02
11395;BME280;5753;54.402;10.220;2023-04-19T09:58:40;103141.72;;;19.77;37.06
11395;BME280;5753;54.402;10.220;2023-04-19T10:01:10;103141.81;;;19.85;36.53
11395;BME280;5753;54.402;10.220;2023-04-19T10:03:37;103141.59;;;19.17;37.58
11395;BME280;5753;54.402;10.220;2023-04-19T10:06:03;103139.69;;;20.93;35.27
11395;BME280;5753;54.402;10.220;2023-04-19T10:08:29;103131.66;;;21.76;33.89
11395;BME280;5753;54.402;10.220;2023-04-19T10:10:57;103121.00;;;21.55;31.55
11395;BME280;5753;54.402;10.220;2023-04-19T10:13:24;103123.94;;;22.05;30.67
11395;BME280;5753;54.402;10.220;2023-04-19T10:15:50;103124.06;;;21.05;31.27
11395;BME280;5753;54.402;10.220;2023-04-19T10:18:17;103113.63;;;21.13;30.72
11395;BME280;5753;54.402;10.220;2023-04-19T10:20:59;103112.50;;;21.98;30.56
11395;BME280;5753;54.402;10.220;2023-04-19T10:23:26;103114.31;;;20.87;31.35
11395;BME280;5753;54.402;10.220;2023-04-19T10:25:57;103121.22;;;21.88;30.27
11395;BME280;5753;54.402;10.220;2023-04-19T10:28:26;103110.03;;;22.24;29.66
11395;BME280;5753;54.402;10.220;2023-04-19T10:31:01;103103.91;;;20.98;31.87
11395;BME280;5753;54.402;10.220;2023-04-19T10:33:35;103102.78;;;21.76;30.81
11395;BME280;5753;54.402;10.220;2023-04-19T10:36:02;103112.31;;;21.63;31.29
11395;BME280;5753;54.402;10.220;2023-04-19T10:41:12;103100.44;;;21.02;32.30
11395;BME280;5753;54.402;10.220;2023-04-19T10:44:08;103095.22;;;21.03;32.48
11395;BME280;5753;54.402;10.220;2023-04-19T10:46:35;103099.44;;;20.88;32.80
11395;BME280;5753;54.402;10.220;2023-04-19T10:49:05;103092.09;;;21.50;31.27
11395;BME280;5753;54.402;10.220;2023-04-19T10:51:38;103097.59;;;21.90;30.84
11395;BME280;5753;54.402;10.220;2023-04-19T10:54:07;103096.66;;;21.77;30.90
11395;BME280;5753;54.402;10.220;2023-04-19T11:04:14;103073.28;;;22.32;31.06
11395;BME280;5753;54.402;10.220;2023-04-19T11:09:28;103076.00;;;22.78;30.22
11395;BME280;5753;54.402;10.220;2023-04-19T11:12:18;103078.53;;;22.32;30.81
11395;BME280;5753;54.402;10.220;2023-04-19T11:14:53;103077.78;;;22.91;30.12
11395;BME280;5753;54.402;10.220;2023-04-19T11:17:23;103085.03;;;21.39;32.70
11395;BME280;5753;54.402;10.220;2023-04-19T11:20:00;103069.00;;;23.22;30.52
11395;BME280;5753;54.402;10.220;2023-04-19T11:22:31;103065.47;;;23.33;30.55
11395;BME280;5753;54.402;10.220;2023-04-19T11:27:31;103060.31;;;24.93;29.48
11395;BME280;5753;54.402;10.220;2023-04-19T11:30:04;103058.81;;;24.59;27.95
11395;BME280;5753;54.402;10.220;2023-04-19T11:32:31;103056.13;;;24.69;27.57
11395;BME280;5753;54.402;10.220;2023-04-19T11:35:02;103061.78;;;22.09;30.31
11395;BME280;5753;54.402;10.220;2023-04-19T11:37:35;103052.34;;;22.88;28.43
11395;BME280;5753;54.402;10.220;2023-04-19T11:40:01;103050.59;;;22.84;28.50
11395;BME280;5753;54.402;10.220;2023-04-19T11:42:28;103051.41;;;22.51;29.08
11395;BME280;5753;54.402;10.220;2023-04-19T11:44:54;103044.81;;;21.41;28.83
11395;BME280;5753;54.402;10.220;2023-04-19T11:47:22;103039.09;;;23.69;27.14
11395;BME280;5753;54.402;10.220;2023-04-19T11:49:48;103026.94;;;22.87;27.80
11395;BME280;5753;54.402;10.220;2023-04-19T11:52:23;103043.97;;;21.47;28.22
11395;BME280;5753;54.402;10.220;2023-04-19T11:54:53;103028.41;;;21.80;27.34
11395;BME280;5753;54.402;10.220;2023-04-19T11:57:31;103032.13;;;22.58;26.77
11395;BME280;5753;54.402;10.220;2023-04-19T12:00:06;103031.78;;;21.58;27.70
11395;BME280;5753;54.402;10.220;2023-04-19T12:02:38;103033.50;;;21.53;27.65
11395;BME280;5753;54.402;10.220;2023-04-19T12:05:12;103028.69;;;22.93;27.23
11395;BME280;5753;54.402;10.220;2023-04-19T12:10:24;103028.66;;;23.11;26.31
11395;BME280;5753;54.402;10.220;2023-04-19T12:12:50;103034.69;;;23.64;26.45
11395;BME280;5753;54.402;10.220;2023-04-19T12:15:16;103022.03;;;25.41;24.75
11395;BME280;5753;54.402;10.220;2023-04-19T12:17:58;103033.78;;;23.80;25.51
11395;BME280;5753;54.402;10.220;2023-04-19T12:20:35;103026.72;;;25.17;24.06
11395;BME280;5753;54.402;10.220;2023-04-19T12:23:02;103023.53;;;26.88;22.58
11395;BME280;5753;54.402;10.220;2023-04-19T12:25:33;103021.66;;;28.63;21.57
11395;BME280;5753;54.402;10.220;2023-04-19T12:28:01;103031.38;;;28.64;21.23
11395;BME280;5753;54.402;10.220;2023-04-19T12:30:28;103015.44;;;27.45;20.56
11395;BME280;5753;54.402;10.220;2023-04-19T12:32:54;103025.84;;;27.98;20.41
11395;BME280;5753;54.402;10.220;2023-04-19T12:35:24;103025.03;;;28.34;19.02
11395;BME280;5753;54.402;10.220;2023-04-19T12:37:53;103023.28;;;28.33;18.62
11395;BME280;5753;54.402;10.220;2023-04-19T12:40:20;103016.03;;;27.15;19.73
11395;BME280;5753;54.402;10.220;2023-04-19T12:42:46;103012.72;;;28.67;19.39
11395;BME280;5753;54.402;10.220;2023-04-19T12:45:13;103006.63;;;27.86;19.70
11395;BME280;5753;54.402;10.220;2023-04-19T12:47:40;103007.31;;;29.38;18.58
11395;BME280;5753;54.402;10.220;2023-04-19T12:50:07;103010.91;;;29.96;17.88
11395;BME280;5753;54.402;10.220;2023-04-19T12:52:33;103011.44;;;30.90;17.53
11395;BME280;5753;54.402;10.220;2023-04-19T12:55:00;103001.25;;;31.74;17.12
11395;BME280;5753;54.402;10.220;2023-04-19T12:57:26;103000.34;;;31.02;16.45
11395;BME280;5753;54.402;10.220;2023-04-19T12:59:52;103013.63;;;29.34;17.43
11395;BME280;5753;54.402;10.220;2023-04-19T13:02:18;103007.59;;;28.95;16.78
11395;BME280;5753;54.402;10.220;2023-04-19T13:04:44;103002.06;;;31.76;15.85
11395;BME280;5753;54.402;10.220;2023-04-19T13:07:10;102992.09;;;32.47;15.04
11395;BME280;5753;54.402;10.220;2023-04-19T13:09:36;102987.91;;;30.23;16.51